createdAt,value
2023-04-18T00:02:48.353Z,30.35
2023-04-18T00:07:52.804Z,28.27
2023-04-18T00:12:58.379Z,27.63
2023-04-18T00:18:06.174Z,28.95
2023-04-18T00:23:13.908Z,27.05
2023-04-18T00:28:18.626Z,28.67
2023-04-18T00:33:21.999Z,27.45
2023-04-18T00:38:25.412Z,28.88
2023-04-18T00:43:30.492Z,28.30
2023-04-18T00:48:33.903Z,27.92
2023-04-18T00:53:37.830Z,30.15
2023-04-18T00:58:42.737Z,31.33
2023-04-18T01:03:46.335Z,29.33
2023-04-18T01:08:49.827Z,28.08
2023-04-18T01:14:01.810Z,27.35
2023-04-18T01:19:06.162Z,34.17
2023-04-18T01:24:12.745Z,29.85
2023-04-18T01:29:16.484Z,29.90
2023-04-18T01:34:20.365Z,26.70
2023-04-18T01:39:25.077Z,27.38
2023-04-18T01:44:28.758Z,29.90
2023-04-18T01:49:32.377Z,29.40
2023-04-18T01:54:37.096Z,27.70
2023-04-18T01:59:40.814Z,26.63
2023-04-18T02:04:44.573Z,26.15
2023-04-18T02:09:49.417Z,25.15
2023-04-18T02:14:54.176Z,27.10
2023-04-18T02:19:57.710Z,24.95
2023-04-18T02:25:02.475Z,23.23
2023-04-18T02:30:06.795Z,28.35
2023-04-18T02:35:11.350Z,24.83
2023-04-18T02:40:16.514Z,24.23
2023-04-18T02:45:19.978Z,24.33
2023-04-18T02:50:23.383Z,25.48
2023-04-18T02:55:28.161Z,23.83
2023-04-18T03:00:31.884Z,23.80
2023-04-18T03:05:35.858Z,26.90
2023-04-18T03:10:41.069Z,24.00
2023-04-18T03:15:44.656Z,23.83
2023-04-18T03:20:48.057Z,24.67
2023-04-18T03:25:52.895Z,25.95
2023-04-18T03:30:56.280Z,26.05
2023-04-18T03:36:00.159Z,24.60
2023-04-18T03:41:05.232Z,24.40
2023-04-18T03:46:08.956Z,24.73
2023-04-18T03:51:12.370Z,24.10
2023-04-18T03:56:17.188Z,25.30
2023-04-18T04:01:20.747Z,27.38
2023-04-18T04:06:24.685Z,26.98
2023-04-18T04:11:29.505Z,22.98
2023-04-18T04:16:33.131Z,25.52
2023-04-18T04:21:36.807Z,28.95
2023-04-18T04:26:42.763Z,29.63
2023-04-18T04:31:46.947Z,31.50
2023-04-18T04:36:51.248Z,29.60
2023-04-18T04:41:57.773Z,33.25
2023-04-18T04:47:01.510Z,33.72
2023-04-18T04:52:04.964Z,32.63
2023-04-18T04:57:09.735Z,32.38
2023-04-18T05:02:13.187Z,34.63
2023-04-18T05:07:17.293Z,32.65
2023-04-18T05:12:22.068Z,30.77
2023-04-18T05:17:25.549Z,30.70
2023-04-18T05:22:28.978Z,31.58
2023-04-18T05:27:33.759Z,30.17
2023-04-18T05:32:39.003Z,26.63
2023-04-18T05:37:43.134Z,28.40
2023-04-18T05:42:50.774Z,27.65
2023-04-18T05:47:55.043Z,25.30
2023-04-18T05:52:59.383Z,29.25
2023-04-18T05:58:04.307Z,27.38
2023-04-18T06:03:10.105Z,30.67
2023-04-18T06:08:14.505Z,28.23
2023-04-18T06:13:19.287Z,28.38
2023-04-18T06:18:22.766Z,28.42
2023-04-18T06:23:26.324Z,31.17
2023-04-18T06:28:31.512Z,25.13
2023-04-18T06:33:35.619Z,31.67
2023-04-18T06:38:39.017Z,26.85
2023-04-18T06:43:52.398Z,24.23
2023-04-18T06:49:03.029Z,25.70
2023-04-18T06:54:06.513Z,24.42
2023-04-18T06:59:11.578Z,26.13
2023-04-18T07:04:15.533Z,22.30
2023-04-18T07:09:19.852Z,25.98
2023-04-18T07:14:25.870Z,29.77
2023-04-18T07:19:29.692Z,26.10
2023-04-18T07:24:33.103Z,26.60
2023-04-18T07:29:37.919Z,23.52
2023-04-18T07:34:41.673Z,20.75
2023-04-18T07:39:45.161Z,20.80
2023-04-18T07:44:50.075Z,19.33
2023-04-18T07:49:53.648Z,18.67
2023-04-18T07:54:57.094Z,20.50
2023-04-18T08:00:01.888Z,19.90
2023-04-18T08:05:05.977Z,17.80
2023-04-18T08:10:10.240Z,17.77
2023-04-18T08:15:15.056Z,20.15
2023-04-18T08:20:18.756Z,15.77
2023-04-18T08:25:22.148Z,18.92
2023-04-18T08:30:27.079Z,15.98
2023-04-18T08:35:30.586Z,19.17
2023-04-18T08:40:34.059Z,19.80
2023-04-18T08:45:40.241Z,18.80
2023-04-18T08:50:44.550Z,17.50
2023-04-18T08:55:50.602Z,20.45
2023-04-18T09:00:56.323Z,19.35
2023-04-18T09:06:09.329Z,21.90
2023-04-18T09:16:29.268Z,21.63
2023-04-18T09:21:33.000Z,19.48
2023-04-18T09:26:37.077Z,21.27
2023-04-18T09:31:59.913Z,27.17
2023-04-18T09:37:07.815Z,19.67
2023-04-18T09:42:11.757Z,21.73
2023-04-18T09:47:16.490Z,30.50
2023-04-18T09:52:21.118Z,21.10
2023-04-18T09:57:28.863Z,21.23
2023-04-18T10:02:41.360Z,21.63
2023-04-18T10:07:47.444Z,22.17
2023-04-18T10:12:54.591Z,22.02
2023-04-18T10:18:05.692Z,18.85
2023-04-18T10:23:37.239Z,23.50
2023-04-18T10:28:54.530Z,28.13
2023-04-18T10:39:22.819Z,25.88
2023-04-18T10:44:27.104Z,27.80
2023-04-18T10:49:35.439Z,23.38
2023-04-18T10:54:42.813Z,23.80
2023-04-18T10:59:50.451Z,23.42
2023-04-18T11:04:57.057Z,25.30
2023-04-18T11:10:00.665Z,22.38
2023-04-18T11:15:10.999Z,21.30
2023-04-18T11:20:15.920Z,19.38
2023-04-18T11:25:24.401Z,20.92
2023-04-18T11:30:28.356Z,23.52
2023-04-18T11:35:38.637Z,25.40
2023-04-18T11:40:49.053Z,23.58
2023-04-18T11:45:54.254Z,27.40
2023-04-18T11:50:59.442Z,25.85
2023-04-18T11:56:03.811Z,22.63
2023-04-18T12:01:20.235Z,25.08
2023-04-18T12:06:25.208Z,32.45
2023-04-18T12:11:28.727Z,29.92
2023-04-18T12:16:33.875Z,28.42
2023-04-18T12:21:56.705Z,29.05
2023-04-18T12:27:00.355Z,28.13
2023-04-18T12:32:03.781Z,24.13
2023-04-18T12:37:09.393Z,29.05
2023-04-18T12:42:12.796Z,21.05
2023-04-18T12:47:16.538Z,22.85
2023-04-18T12:52:21.593Z,26.08
2023-04-18T12:57:25.613Z,24.27
2023-04-18T13:02:52.489Z,22.42
2023-04-18T13:13:04.016Z,18.63
2023-04-18T13:18:08.169Z,24.30
2023-04-18T13:23:13.039Z,22.65
2023-04-18T13:28:16.422Z,20.25
2023-04-18T13:33:19.940Z,24.02
2023-04-18T13:38:25.134Z,24.05
2023-04-18T13:43:28.675Z,23.13
2023-04-18T13:48:32.042Z,24.08
2023-04-18T13:53:37.045Z,28.98
2023-04-18T13:58:40.518Z,30.08
2023-04-18T14:03:44.612Z,30.02
2023-04-18T14:08:50.450Z,31.60
2023-04-18T14:13:54.113Z,26.70
2023-04-18T14:18:58.155Z,34.33
2023-04-18T14:24:03.670Z,28.67
2023-04-18T14:29:07.118Z,29.83
2023-04-18T14:34:10.530Z,27.50
2023-04-18T14:39:15.982Z,22.08
2023-04-18T14:44:19.488Z,23.23
2023-04-18T14:49:23.277Z,18.60
2023-04-18T14:54:28.941Z,24.20
2023-04-18T14:59:32.957Z,19.95
2023-04-18T15:04:36.446Z,18.60
2023-04-18T15:09:41.856Z,18.77
2023-04-18T15:14:45.326Z,17.45
2023-04-18T15:19:49.262Z,19.67
2023-04-18T15:24:54.060Z,24.95
2023-04-18T15:29:57.578Z,22.30
2023-04-18T15:35:01.117Z,22.33
2023-04-18T15:40:09.503Z,18.00
2023-04-18T15:45:13.282Z,19.58
2023-04-18T15:50:17.149Z,18.42
2023-04-18T15:55:22.261Z,21.73
2023-04-18T16:00:25.692Z,23.70
2023-04-18T16:05:29.479Z,26.33
2023-04-18T16:10:34.414Z,25.67
2023-04-18T16:15:41.524Z,24.27
2023-04-18T16:20:45.404Z,25.77
2023-04-18T16:25:51.147Z,22.63
2023-04-18T16:30:55.624Z,28.45
2023-04-18T16:35:59.917Z,28.15
2023-04-18T16:41:04.732Z,24.50
2023-04-18T16:46:09.272Z,26.35
2023-04-18T16:51:13.150Z,27.48
2023-04-18T16:56:18.166Z,31.58
2023-04-18T17:01:21.688Z,26.65
2023-04-18T17:06:25.191Z,29.08
2023-04-18T17:11:32.156Z,27.92
2023-04-18T17:16:39.447Z,25.90
2023-04-18T17:21:44.740Z,27.30
2023-04-18T17:26:50.452Z,29.98
2023-04-18T17:31:54.088Z,29.45
2023-04-18T17:36:57.612Z,25.98
2023-04-18T17:42:02.994Z,28.17
2023-04-18T17:47:06.727Z,27.52
2023-04-18T17:52:10.242Z,31.23
2023-04-18T17:57:15.056Z,32.63
2023-04-18T18:02:18.667Z,29.58
2023-04-18T18:07:22.318Z,32.78
2023-04-18T18:12:27.549Z,36.33
2023-04-18T18:17:31.050Z,31.25
2023-04-18T18:22:35.021Z,30.67
2023-04-18T18:27:40.762Z,26.60
2023-04-18T18:32:44.254Z,30.70
2023-04-18T18:37:48.017Z,27.38
2023-04-18T18:42:54.865Z,30.52
2023-04-18T18:47:58.481Z,25.55
2023-04-18T18:53:02.497Z,28.48
2023-04-18T18:58:08.022Z,29.05
2023-04-18T19:03:12.617Z,25.63
2023-04-18T19:08:16.375Z,24.48
2023-04-18T19:13:23.809Z,24.70
2023-04-18T19:18:27.523Z,29.80
2023-04-18T19:23:31.239Z,24.92
2023-04-18T19:28:36.282Z,30.05
2023-04-18T19:33:39.730Z,22.60
2023-04-18T19:38:43.127Z,25.77
2023-04-18T19:43:48.565Z,29.10
2023-04-18T19:48:52.279Z,28.52
2023-04-18T19:53:56.038Z,29.92
2023-04-18T19:59:01.706Z,31.77
2023-04-18T20:04:06.176Z,29.05
2023-04-18T20:09:15.286Z,28.10
2023-04-18T20:14:20.586Z,26.75
2023-04-18T20:19:25.777Z,26.25
2023-04-18T20:24:29.727Z,26.05
2023-04-18T20:29:34.849Z,29.48
2023-04-18T20:34:38.297Z,26.73
2023-04-18T20:39:42.114Z,25.15
2023-04-18T20:44:47.846Z,25.90
2023-04-18T20:49:51.401Z,27.10
2023-04-18T20:54:54.867Z,24.92
2023-04-18T20:59:59.867Z,28.65
2023-04-18T21:05:03.436Z,27.67
2023-04-18T21:10:07.958Z,26.67
2023-04-18T21:15:13.925Z,30.45
2023-04-18T21:20:17.687Z,25.45
2023-04-18T21:25:21.479Z,23.55
2023-04-18T21:30:26.795Z,24.05
2023-04-18T21:35:30.838Z,28.92
2023-04-18T21:40:34.627Z,26.65
2023-04-18T21:45:39.459Z,23.83
2023-04-18T21:50:43.711Z,24.90
2023-04-18T21:55:48.016Z,23.65
2023-04-18T22:00:53.129Z,27.85
2023-04-18T22:05:57.550Z,24.33
2023-04-18T22:11:01.618Z,27.08
2023-04-18T22:16:08.319Z,24.25
2023-04-18T22:21:11.937Z,24.10
2023-04-18T22:26:15.533Z,23.92
2023-04-18T22:31:20.610Z,23.20
2023-04-18T22:36:24.122Z,24.75
2023-04-18T22:41:27.544Z,25.45
2023-04-18T22:46:32.958Z,26.85
2023-04-18T22:51:36.538Z,21.02
2023-04-18T22:56:40.002Z,23.60
2023-04-18T23:01:44.897Z,22.40
2023-04-18T23:06:48.392Z,26.38
2023-04-18T23:11:52.019Z,21.45
2023-04-18T23:16:57.129Z,23.15
2023-04-18T23:22:00.990Z,24.23
2023-04-18T23:27:04.780Z,23.25
2023-04-18T23:32:09.577Z,22.83
2023-04-18T23:37:13.054Z,25.85
2023-04-18T23:42:16.464Z,23.73
2023-04-18T23:47:21.370Z,21.95
2023-04-18T23:52:25.584Z,24.17
2023-04-18T23:57:29.062Z,22.77
